createdAt,value
2023-04-07T00:02:49.292Z,23.08
2023-04-07T00:07:56.523Z,21.47
2023-04-07T00:12:59.949Z,22.08
2023-04-07T00:18:02.616Z,31.60
2023-04-07T00:23:05.093Z,21.43
2023-04-07T00:28:07.724Z,22.02
2023-04-07T00:33:10.330Z,22.90
2023-04-07T00:38:13.400Z,11.52
2023-04-07T00:43:16.502Z,21.90
2023-04-07T00:48:19.366Z,20.60
2023-04-07T00:53:21.878Z,20.05
2023-04-07T00:58:24.581Z,17.73
2023-04-07T01:03:35.793Z,23.60
2023-04-07T01:09:07.998Z,33.47
2023-04-07T01:14:13.811Z,26.77
2023-04-07T01:19:37.262Z,35.78
2023-04-07T01:25:17.327Z,38.83
2023-04-07T01:30:20.851Z,30.15
2023-04-07T01:35:25.748Z,27.30
2023-04-07T01:40:30.376Z,21.20
2023-04-07T01:45:36.665Z,16.40
2023-04-07T01:50:39.821Z,15.60
2023-04-07T01:55:44.134Z,19.45
2023-04-07T02:00:47.778Z,26.25
2023-04-07T02:05:58.178Z,23.80
2023-04-07T02:11:08.164Z,15.48
2023-04-07T02:16:14.219Z,22.80
2023-04-07T02:21:21.092Z,26.17
2023-04-07T02:26:23.684Z,25.42
2023-04-07T02:31:26.195Z,22.30
2023-04-07T02:36:29.071Z,30.27
2023-04-07T02:41:31.660Z,27.50
2023-04-07T02:46:35.730Z,21.75
2023-04-07T02:51:38.441Z,16.67
2023-04-07T02:56:41.185Z,22.67
2023-04-07T03:01:43.901Z,19.92
2023-04-07T03:06:46.935Z,22.10
2023-04-07T03:11:51.415Z,21.55
2023-04-07T03:16:55.352Z,18.80
2023-04-07T03:22:00.881Z,17.93
2023-04-07T03:27:08.397Z,20.90
2023-04-07T03:32:20.797Z,39.57
2023-04-07T03:37:23.384Z,34.45
2023-04-07T03:42:26.134Z,24.52
2023-04-07T03:47:35.773Z,37.17
2023-04-07T03:52:40.502Z,31.88
2023-04-07T03:57:54.419Z,26.53
2023-04-07T04:02:57.589Z,18.95
2023-04-07T04:08:00.508Z,15.20
2023-04-07T04:13:07.066Z,19.03
2023-04-07T04:18:10.430Z,16.77
2023-04-07T04:23:13.253Z,14.70
2023-04-07T04:28:17.893Z,21.20
2023-04-07T04:33:20.671Z,20.02
2023-04-07T04:38:30.714Z,20.60
2023-04-07T04:43:42.326Z,18.88
2023-04-07T04:48:47.396Z,25.63
2023-04-07T04:53:52.942Z,16.20
2023-04-07T04:58:58.628Z,14.02
2023-04-07T05:04:11.299Z,12.50
2023-04-07T05:09:19.887Z,12.02
2023-04-07T05:14:28.118Z,14.47
2023-04-07T05:19:41.085Z,12.48
2023-04-07T05:24:50.706Z,10.75
2023-04-07T05:29:54.320Z,10.33
2023-04-07T05:35:02.270Z,14.00
2023-04-07T05:40:08.803Z,15.13
2023-04-07T05:45:11.841Z,13.98
2023-04-07T05:50:19.448Z,17.08
2023-04-07T05:55:24.337Z,15.93
2023-04-07T06:00:28.115Z,18.50
2023-04-07T06:05:48.940Z,21.37
2023-04-07T06:10:55.080Z,13.63
2023-04-07T06:15:57.879Z,10.35
2023-04-07T06:21:00.537Z,16.73
2023-04-07T06:26:03.130Z,11.07
2023-04-07T06:31:06.169Z,9.82
2023-04-07T06:36:09.034Z,16.90
2023-04-07T06:41:17.135Z,14.75
2023-04-07T06:46:20.093Z,19.42
2023-04-07T06:51:22.862Z,9.10
2023-04-07T06:56:26.449Z,12.13
2023-04-07T07:01:29.822Z,15.93
2023-04-07T07:06:33.116Z,12.23
2023-04-07T07:11:35.724Z,10.07
2023-04-07T07:16:39.643Z,13.27
2023-04-07T07:21:42.129Z,15.83
2023-04-07T07:26:46.274Z,16.63
2023-04-07T07:31:49.096Z,7.60
2023-04-07T07:36:51.721Z,14.57
2023-04-07T07:41:54.323Z,17.90
2023-04-07T07:46:56.702Z,18.95
2023-04-07T07:52:00.155Z,19.00
2023-04-07T07:57:06.604Z,17.40
2023-04-07T08:02:09.845Z,20.45
2023-04-07T08:07:12.757Z,24.90
2023-04-07T08:12:15.897Z,19.27
2023-04-07T08:17:21.271Z,13.13
2023-04-07T08:22:23.842Z,22.93
2023-04-07T08:27:26.374Z,9.40
2023-04-07T08:32:42.435Z,12.48
2023-04-07T08:37:45.166Z,9.55
2023-04-07T08:42:50.206Z,8.53
2023-04-07T08:47:59.134Z,13.52
2023-04-07T08:53:07.279Z,16.77
2023-04-07T08:58:13.648Z,10.53
2023-04-07T09:03:20.180Z,11.00
2023-04-07T09:08:22.731Z,11.88
2023-04-07T09:13:26.205Z,12.27
2023-04-07T09:18:29.946Z,12.50
2023-04-07T09:23:35.211Z,14.13
2023-04-07T09:28:45.904Z,11.15
2023-04-07T09:33:52.050Z,13.57
2023-04-07T09:38:55.010Z,16.17
2023-04-07T09:43:58.746Z,11.43
2023-04-07T09:49:05.610Z,13.70
2023-04-07T09:54:09.660Z,18.77
2023-04-07T09:59:12.638Z,13.45
2023-04-07T10:04:17.918Z,13.27
2023-04-07T10:09:22.833Z,11.77
2023-04-07T10:14:32.066Z,8.88
2023-04-07T10:19:36.397Z,10.27
2023-04-07T10:24:42.802Z,17.57
2023-04-07T10:29:52.263Z,10.85
2023-04-07T10:34:58.781Z,8.57
2023-04-07T10:40:19.783Z,10.30
2023-04-07T10:45:52.487Z,12.10
2023-04-07T10:51:21.919Z,12.10
2023-04-07T10:56:26.214Z,12.47
2023-04-07T11:01:29.245Z,10.40
2023-04-07T11:06:32.370Z,11.40
2023-04-07T11:11:40.377Z,12.02
2023-04-07T11:16:44.143Z,13.33
2023-04-07T11:21:47.050Z,13.00
2023-04-07T11:26:50.682Z,9.20
2023-04-07T11:31:53.656Z,9.87
2023-04-07T11:37:00.042Z,12.57
2023-04-07T11:42:02.555Z,10.70
2023-04-07T11:47:05.906Z,9.37
2023-04-07T11:52:08.553Z,8.87
2023-04-07T11:57:14.280Z,15.63
2023-04-07T12:02:36.561Z,14.63
2023-04-07T12:07:42.219Z,16.83
2023-04-07T12:12:46.890Z,14.48
2023-04-07T12:17:49.864Z,16.45
2023-04-07T12:22:53.209Z,17.43
2023-04-07T12:27:56.603Z,18.05
2023-04-07T12:32:59.422Z,15.02
2023-04-07T12:38:02.111Z,15.33
2023-04-07T12:43:07.989Z,14.80
2023-04-07T12:48:10.594Z,12.75
2023-04-07T12:53:16.130Z,11.48
2023-04-07T12:58:19.540Z,13.60
2023-04-07T13:03:22.164Z,16.83
2023-04-07T13:08:25.027Z,11.90
2023-04-07T13:13:27.640Z,12.33
2023-04-07T13:18:30.333Z,14.82
2023-04-07T13:23:42.705Z,12.80
2023-04-07T13:28:56.793Z,18.83
2023-04-07T13:33:59.486Z,16.20
2023-04-07T13:39:02.441Z,17.52
2023-04-07T13:44:05.318Z,17.38
2023-04-07T13:49:08.732Z,18.77
2023-04-07T13:54:12.052Z,17.95
2023-04-07T13:59:14.778Z,20.27
2023-04-07T14:04:17.543Z,20.70
2023-04-07T14:09:20.249Z,14.02
2023-04-07T14:14:23.082Z,13.68
2023-04-07T14:19:25.690Z,16.67
2023-04-07T14:24:28.112Z,8.90
2023-04-07T14:29:30.688Z,12.98
2023-04-07T14:34:33.232Z,11.45
2023-04-07T14:39:35.949Z,11.97
2023-04-07T14:44:38.618Z,11.85
2023-04-07T14:49:41.122Z,11.18
2023-04-07T14:54:43.945Z,10.67
2023-04-07T14:59:47.876Z,9.70
2023-04-07T15:04:50.844Z,11.13
2023-04-07T15:09:54.276Z,13.97
2023-04-07T15:14:56.899Z,12.67
2023-04-07T15:19:59.422Z,12.00
2023-04-07T15:25:03.620Z,13.35
2023-04-07T15:30:06.789Z,11.20
2023-04-07T15:35:09.593Z,11.80
2023-04-07T15:40:12.585Z,11.13
2023-04-07T15:45:15.186Z,10.93
2023-04-07T15:50:17.777Z,16.98
2023-04-07T15:55:20.475Z,11.60
2023-04-07T16:00:23.454Z,9.40
2023-04-07T16:05:26.049Z,7.63
2023-04-07T16:10:28.641Z,12.43
2023-04-07T16:15:39.963Z,9.32
2023-04-07T16:20:43.566Z,11.77
2023-04-07T16:25:46.140Z,9.18
2023-04-07T16:30:48.754Z,12.25
2023-04-07T16:35:51.308Z,11.40
2023-04-07T16:41:03.242Z,9.38
2023-04-07T16:46:06.993Z,10.05
2023-04-07T16:51:09.560Z,10.17
2023-04-07T16:56:22.537Z,12.17
2023-04-07T17:01:24.965Z,10.60
2023-04-07T17:06:27.840Z,8.65
2023-04-07T17:11:30.574Z,11.87
2023-04-07T17:16:33.169Z,9.10
2023-04-07T17:21:36.048Z,12.95
2023-04-07T17:26:38.702Z,7.70
2023-04-07T17:31:41.451Z,5.70
2023-04-07T17:36:44.091Z,13.98
2023-04-07T17:41:47.829Z,7.77
2023-04-07T17:46:50.649Z,9.32
2023-04-07T17:51:53.155Z,9.80
2023-04-07T17:56:55.886Z,9.33
2023-04-07T18:01:58.538Z,8.88
2023-04-07T18:07:01.141Z,6.20
2023-04-07T18:12:03.922Z,6.53
2023-04-07T18:17:06.390Z,7.18
2023-04-07T18:22:12.019Z,7.67
2023-04-07T18:27:14.670Z,5.67
2023-04-07T18:32:17.328Z,6.30
2023-04-07T18:37:19.988Z,5.60
2023-04-07T18:42:22.612Z,5.83
2023-04-07T18:47:25.232Z,6.65
2023-04-07T18:52:27.839Z,8.07
2023-04-07T18:57:30.384Z,10.00
2023-04-07T19:02:33.227Z,7.13
2023-04-07T19:07:36.401Z,8.37
2023-04-07T19:12:38.988Z,4.55
2023-04-07T19:17:41.819Z,9.77
2023-04-07T19:22:44.388Z,6.23
2023-04-07T19:27:46.970Z,8.32
2023-04-07T19:32:49.499Z,5.13
2023-04-07T19:37:52.719Z,4.67
2023-04-07T19:42:57.438Z,4.05
2023-04-07T19:48:00.465Z,4.50
2023-04-07T19:53:02.891Z,5.57
2023-04-07T19:58:05.540Z,3.97
2023-04-07T20:03:08.153Z,8.33
2023-04-07T20:08:11.399Z,3.67
2023-04-07T20:13:13.886Z,5.03
2023-04-07T20:18:19.616Z,7.07
2023-04-07T20:23:22.551Z,4.55
2023-04-07T20:28:25.608Z,3.47
2023-04-07T20:33:28.255Z,6.00
2023-04-07T20:38:30.762Z,5.50
2023-04-07T20:43:33.338Z,4.07
2023-04-07T20:48:35.935Z,4.40
2023-04-07T20:53:38.455Z,5.38
2023-04-07T20:58:40.977Z,3.90
2023-04-07T21:03:43.617Z,3.08
2023-04-07T21:08:46.424Z,4.83
2023-04-07T21:13:49.143Z,4.03
2023-04-07T21:18:51.822Z,6.78
2023-04-07T21:23:54.315Z,4.27
2023-04-07T21:28:56.868Z,3.80
2023-04-07T21:34:00.690Z,5.43
2023-04-07T21:39:03.355Z,3.88
2023-04-07T21:44:09.689Z,5.70
2023-04-07T21:49:14.608Z,5.30
2023-04-07T21:54:17.640Z,4.78
2023-04-07T21:59:20.138Z,5.32
2023-04-07T22:04:22.619Z,4.20
2023-04-07T22:09:26.717Z,5.85
2023-04-07T22:14:29.291Z,5.67
2023-04-07T22:19:31.854Z,4.95
2023-04-07T22:24:35.410Z,17.52
2023-04-07T22:29:38.558Z,12.30
2023-04-07T22:34:41.071Z,13.60
2023-04-07T22:40:02.595Z,12.10
2023-04-07T22:45:07.093Z,9.27
2023-04-07T22:50:13.045Z,7.35
2023-04-07T22:55:15.953Z,6.03
2023-04-07T23:00:18.585Z,5.82
2023-04-07T23:05:20.971Z,6.60
2023-04-07T23:10:23.610Z,6.00
2023-04-07T23:15:27.470Z,6.97
2023-04-07T23:20:30.001Z,6.35
2023-04-07T23:25:32.519Z,8.65
2023-04-07T23:30:37.710Z,8.80
2023-04-07T23:35:40.289Z,7.43
2023-04-07T23:40:43.053Z,6.63
2023-04-07T23:45:45.783Z,5.65
2023-04-07T23:50:50.336Z,7.10
2023-04-07T23:55:52.881Z,8.63
